sensor_id;sensor_type;location;lat;lon;timestamp;P1;durP1;ratioP1;P2;durP2;ratioP2
13321;SDS011;6730;46.248;6.930;2024-02-21T00:02:17;1.43;;;0.90;;
13321;SDS011;6730;46.248;6.930;2024-02-21T00:04:43;1.00;;;0.77;;
13321;SDS011;6730;46.248;6.930;2024-02-21T00:07:09;2.03;;;0.87;;
13321;SDS011;6730;46.248;6.930;2024-02-21T00:09:34;0.80;;;0.80;;
13321;SDS011;6730;46.248;6.930;2024-02-21T00:12:00;1.13;;;0.60;;
13321;SDS011;6730;46.248;6.930;2024-02-21T00:14:26;0.87;;;0.80;;
13321;SDS011;6730;46.248;6.930;2024-02-21T00:16:52;0.83;;;0.83;;
13321;SDS011;6730;46.248;6.930;2024-02-21T00:19:18;0.97;;;0.80;;
13321;SDS011;6730;46.248;6.930;2024-02-21T00:21:44;1.90;;;0.90;;
13321;SDS011;6730;46.248;6.930;2024-02-21T00:24:09;1.10;;;1.00;;
13321;SDS011;6730;46.248;6.930;2024-02-21T00:26:35;0.87;;;0.83;;
13321;SDS011;6730;46.248;6.930;2024-02-21T00:29:00;1.10;;;1.00;;
13321;SDS011;6730;46.248;6.930;2024-02-21T00:31:26;1.23;;;0.83;;
13321;SDS011;6730;46.248;6.930;2024-02-21T00:33:52;2.10;;;0.90;;
13321;SDS011;6730;46.248;6.930;2024-02-21T00:36:18;1.30;;;0.90;;
13321;SDS011;6730;46.248;6.930;2024-02-21T00:38:43;0.60;;;0.60;;
13321;SDS011;6730;46.248;6.930;2024-02-21T00:41:09;1.00;;;0.90;;
13321;SDS011;6730;46.248;6.930;2024-02-21T00:43:35;1.27;;;1.00;;
13321;SDS011;6730;46.248;6.930;2024-02-21T00:46:01;2.40;;;1.07;;
13321;SDS011;6730;46.248;6.930;2024-02-21T00:48:26;1.10;;;0.90;;
13321;SDS011;6730;46.248;6.930;2024-02-21T00:50:52;0.80;;;0.80;;
13321;SDS011;6730;46.248;6.930;2024-02-21T00:53:17;1.10;;;0.97;;
13321;SDS011;6730;46.248;6.930;2024-02-21T00:55:43;1.00;;;0.90;;
13321;SDS011;6730;46.248;6.930;2024-02-21T00:58:09;0.80;;;0.80;;
13321;SDS011;6730;46.248;6.930;2024-02-21T01:00:34;1.43;;;1.03;;
13321;SDS011;6730;46.248;6.930;2024-02-21T01:03:00;1.00;;;0.90;;
13321;SDS011;6730;46.248;6.930;2024-02-21T01:05:26;0.70;;;0.60;;
13321;SDS011;6730;46.248;6.930;2024-02-21T01:07:54;0.70;;;0.70;;
13321;SDS011;6730;46.248;6.930;2024-02-21T01:10:19;0.70;;;0.70;;
13321;SDS011;6730;46.248;6.930;2024-02-21T01:12:45;0.97;;;0.60;;
13321;SDS011;6730;46.248;6.930;2024-02-21T01:15:11;1.27;;;0.80;;
13321;SDS011;6730;46.248;6.930;2024-02-21T01:17:36;1.23;;;0.80;;
13321;SDS011;6730;46.248;6.930;2024-02-21T01:20:03;0.77;;;0.70;;
13321;SDS011;6730;46.248;6.930;2024-02-21T01:22:30;0.60;;;0.60;;
13321;SDS011;6730;46.248;6.930;2024-02-21T01:24:56;0.70;;;0.70;;
13321;SDS011;6730;46.248;6.930;2024-02-21T01:27:21;0.90;;;0.80;;
13321;SDS011;6730;46.248;6.930;2024-02-21T01:29:47;0.77;;;0.60;;
13321;SDS011;6730;46.248;6.930;2024-02-21T01:32:14;0.57;;;0.50;;
13321;SDS011;6730;46.248;6.930;2024-02-21T01:34:40;0.60;;;0.60;;
13321;SDS011;6730;46.248;6.930;2024-02-21T01:37:06;1.10;;;0.60;;
13321;SDS011;6730;46.248;6.930;2024-02-21T01:39:32;0.40;;;0.40;;
13321;SDS011;6730;46.248;6.930;2024-02-21T01:41:58;0.40;;;0.33;;
13321;SDS011;6730;46.248;6.930;2024-02-21T01:44:24;0.37;;;0.30;;
13321;SDS011;6730;46.248;6.930;2024-02-21T01:46:50;0.27;;;0.27;;
13321;SDS011;6730;46.248;6.930;2024-02-21T01:49:17;0.30;;;0.30;;
13321;SDS011;6730;46.248;6.930;2024-02-21T01:51:44;0.30;;;0.30;;
13321;SDS011;6730;46.248;6.930;2024-02-21T01:54:10;0.30;;;0.30;;
13321;SDS011;6730;46.248;6.930;2024-02-21T01:56:38;0.40;;;0.40;;
13321;SDS011;6730;46.248;6.930;2024-02-21T01:59:04;0.30;;;0.30;;
13321;SDS011;6730;46.248;6.930;2024-02-21T02:01:30;0.40;;;0.40;;
13321;SDS011;6730;46.248;6.930;2024-02-21T02:03:55;0.63;;;0.43;;
13321;SDS011;6730;46.248;6.930;2024-02-21T02:06:22;0.37;;;0.30;;
13321;SDS011;6730;46.248;6.930;2024-02-21T02:08:47;0.40;;;0.33;;
13321;SDS011;6730;46.248;6.930;2024-02-21T02:11:13;0.23;;;0.23;;
13321;SDS011;6730;46.248;6.930;2024-02-21T02:13:40;0.53;;;0.40;;
13321;SDS011;6730;46.248;6.930;2024-02-21T02:16:05;0.27;;;0.27;;
13321;SDS011;6730;46.248;6.930;2024-02-21T02:18:31;0.37;;;0.30;;
13321;SDS011;6730;46.248;6.930;2024-02-21T02:20:57;0.30;;;0.30;;
13321;SDS011;6730;46.248;6.930;2024-02-21T02:23:30;0.20;;;0.20;;
13321;SDS011;6730;46.248;6.930;2024-02-21T02:25:56;0.20;;;0.20;;
13321;SDS011;6730;46.248;6.930;2024-02-21T02:28:23;0.27;;;0.27;;
13321;SDS011;6730;46.248;6.930;2024-02-21T02:57:45;0.57;;;0.50;;
13321;SDS011;6730;46.248;6.930;2024-02-21T03:00:11;0.30;;;0.30;;
13321;SDS011;6730;46.248;6.930;2024-02-21T03:02:38;0.20;;;0.17;;
13321;SDS011;6730;46.248;6.930;2024-02-21T03:05:11;0.17;;;0.17;;
13321;SDS011;6730;46.248;6.930;2024-02-21T03:07:40;0.10;;;0.10;;
13321;SDS011;6730;46.248;6.930;2024-02-21T03:10:07;0.47;;;0.47;;
13321;SDS011;6730;46.248;6.930;2024-02-21T03:12:33;0.53;;;0.40;;
13321;SDS011;6730;46.248;6.930;2024-02-21T03:14:59;0.40;;;0.23;;
13321;SDS011;6730;46.248;6.930;2024-02-21T03:17:25;0.40;;;0.40;;
13321;SDS011;6730;46.248;6.930;2024-02-21T03:19:53;0.40;;;0.40;;
13321;SDS011;6730;46.248;6.930;2024-02-21T03:22:20;1.47;;;0.40;;
13321;SDS011;6730;46.248;6.930;2024-02-21T03:24:46;0.53;;;0.40;;
13321;SDS011;6730;46.248;6.930;2024-02-21T03:27:12;0.43;;;0.43;;
13321;SDS011;6730;46.248;6.930;2024-02-21T03:29:38;0.47;;;0.40;;
13321;SDS011;6730;46.248;6.930;2024-02-21T03:32:03;0.40;;;0.40;;
13321;SDS011;6730;46.248;6.930;2024-02-21T03:34:29;0.30;;;0.30;;
13321;SDS011;6730;46.248;6.930;2024-02-21T03:36:55;0.40;;;0.40;;
13321;SDS011;6730;46.248;6.930;2024-02-21T03:39:20;0.30;;;0.30;;
13321;SDS011;6730;46.248;6.930;2024-02-21T03:41:46;0.33;;;0.33;;
13321;SDS011;6730;46.248;6.930;2024-02-21T03:44:12;0.30;;;0.30;;
13321;SDS011;6730;46.248;6.930;2024-02-21T03:46:38;0.40;;;0.40;;
13321;SDS011;6730;46.248;6.930;2024-02-21T03:49:03;0.33;;;0.30;;
13321;SDS011;6730;46.248;6.930;2024-02-21T03:51:29;0.30;;;0.30;;
13321;SDS011;6730;46.248;6.930;2024-02-21T03:53:55;0.20;;;0.20;;
13321;SDS011;6730;46.248;6.930;2024-02-21T03:56:20;0.40;;;0.20;;
13321;SDS011;6730;46.248;6.930;2024-02-21T03:58:46;0.20;;;0.20;;
13321;SDS011;6730;46.248;6.930;2024-02-21T04:01:11;2.00;;;0.30;;
13321;SDS011;6730;46.248;6.930;2024-02-21T04:03:40;0.30;;;0.30;;
13321;SDS011;6730;46.248;6.930;2024-02-21T04:06:05;0.70;;;0.30;;
13321;SDS011;6730;46.248;6.930;2024-02-21T04:08:31;0.30;;;0.30;;
13321;SDS011;6730;46.248;6.930;2024-02-21T04:10:56;0.30;;;0.30;;
13321;SDS011;6730;46.248;6.930;2024-02-21T04:13:22;0.37;;;0.30;;
13321;SDS011;6730;46.248;6.930;2024-02-21T04:15:48;0.33;;;0.33;;
13321;SDS011;6730;46.248;6.930;2024-02-21T04:18:13;0.27;;;0.27;;
13321;SDS011;6730;46.248;6.930;2024-02-21T04:20:40;0.20;;;0.20;;
13321;SDS011;6730;46.248;6.930;2024-02-21T04:23:06;0.40;;;0.40;;
13321;SDS011;6730;46.248;6.930;2024-02-21T04:25:31;0.30;;;0.30;;
13321;SDS011;6730;46.248;6.930;2024-02-21T04:27:57;0.30;;;0.30;;
13321;SDS011;6730;46.248;6.930;2024-02-21T04:30:23;0.20;;;0.20;;
13321;SDS011;6730;46.248;6.930;2024-02-21T04:32:48;0.20;;;0.20;;
13321;SDS011;6730;46.248;6.930;2024-02-21T04:35:14;0.27;;;0.20;;
13321;SDS011;6730;46.248;6.930;2024-02-21T04:37:40;1.30;;;0.47;;
13321;SDS011;6730;46.248;6.930;2024-02-21T04:40:06;0.30;;;0.30;;
13321;SDS011;6730;46.248;6.930;2024-02-21T04:42:32;0.20;;;0.20;;
13321;SDS011;6730;46.248;6.930;2024-02-21T04:44:58;0.40;;;0.40;;
13321;SDS011;6730;46.248;6.930;2024-02-21T04:47:23;0.40;;;0.40;;
13321;SDS011;6730;46.248;6.930;2024-02-21T04:49:50;0.20;;;0.20;;
13321;SDS011;6730;46.248;6.930;2024-02-21T04:52:15;0.20;;;0.20;;
13321;SDS011;6730;46.248;6.930;2024-02-21T04:54:41;0.30;;;0.30;;
13321;SDS011;6730;46.248;6.930;2024-02-21T04:57:07;0.20;;;0.20;;
13321;SDS011;6730;46.248;6.930;2024-02-21T04:59:32;0.60;;;0.37;;
13321;SDS011;6730;46.248;6.930;2024-02-21T05:02:00;0.20;;;0.20;;
13321;SDS011;6730;46.248;6.930;2024-02-21T05:04:25;0.30;;;0.30;;
13321;SDS011;6730;46.248;6.930;2024-02-21T05:06:51;0.30;;;0.30;;
13321;SDS011;6730;46.248;6.930;2024-02-21T05:09:16;0.10;;;0.10;;
13321;SDS011;6730;46.248;6.930;2024-02-21T05:11:42;0.47;;;0.40;;
13321;SDS011;6730;46.248;6.930;2024-02-21T05:14:08;0.30;;;0.30;;
13321;SDS011;6730;46.248;6.930;2024-02-21T05:16:33;0.73;;;0.40;;
13321;SDS011;6730;46.248;6.930;2024-02-21T05:18:59;0.33;;;0.30;;
13321;SDS011;6730;46.248;6.930;2024-02-21T05:21:25;0.73;;;0.57;;
13321;SDS011;6730;46.248;6.930;2024-02-21T05:23:51;0.37;;;0.37;;
13321;SDS011;6730;46.248;6.930;2024-02-21T05:26:20;0.37;;;0.37;;
13321;SDS011;6730;46.248;6.930;2024-02-21T05:28:47;0.30;;;0.30;;
13321;SDS011;6730;46.248;6.930;2024-02-21T05:31:12;0.27;;;0.27;;
13321;SDS011;6730;46.248;6.930;2024-02-21T05:33:39;0.43;;;0.40;;
13321;SDS011;6730;46.248;6.930;2024-02-21T05:36:05;0.30;;;0.30;;
13321;SDS011;6730;46.248;6.930;2024-02-21T05:38:31;0.40;;;0.40;;
13321;SDS011;6730;46.248;6.930;2024-02-21T05:40:56;0.20;;;0.20;;
13321;SDS011;6730;46.248;6.930;2024-02-21T05:43:22;0.20;;;0.20;;
13321;SDS011;6730;46.248;6.930;2024-02-21T05:45:48;0.40;;;0.40;;
13321;SDS011;6730;46.248;6.930;2024-02-21T05:48:14;0.13;;;0.13;;
13321;SDS011;6730;46.248;6.930;2024-02-21T05:50:39;0.50;;;0.40;;
13321;SDS011;6730;46.248;6.930;2024-02-21T05:53:05;0.20;;;0.20;;
13321;SDS011;6730;46.248;6.930;2024-02-21T05:55:31;0.60;;;0.20;;
13321;SDS011;6730;46.248;6.930;2024-02-21T05:57:56;0.30;;;0.30;;
13321;SDS011;6730;46.248;6.930;2024-02-21T06:00:22;0.17;;;0.17;;
13321;SDS011;6730;46.248;6.930;2024-02-21T06:02:48;0.10;;;0.10;;
13321;SDS011;6730;46.248;6.930;2024-02-21T06:05:13;0.13;;;0.13;;
13321;SDS011;6730;46.248;6.930;2024-02-21T06:07:39;0.33;;;0.20;;
13321;SDS011;6730;46.248;6.930;2024-02-21T06:10:05;0.20;;;0.20;;
13321;SDS011;6730;46.248;6.930;2024-02-21T06:12:31;0.60;;;0.30;;
13321;SDS011;6730;46.248;6.930;2024-02-21T06:14:57;0.17;;;0.17;;
13321;SDS011;6730;46.248;6.930;2024-02-21T06:17:22;0.20;;;0.20;;
13321;SDS011;6730;46.248;6.930;2024-02-21T06:19:48;0.80;;;0.20;;
13321;SDS011;6730;46.248;6.930;2024-02-21T06:22:14;0.30;;;0.30;;
13321;SDS011;6730;46.248;6.930;2024-02-21T06:24:39;0.20;;;0.20;;
13321;SDS011;6730;46.248;6.930;2024-02-21T06:27:05;0.30;;;0.30;;
13321;SDS011;6730;46.248;6.930;2024-02-21T06:29:31;0.10;;;0.10;;
13321;SDS011;6730;46.248;6.930;2024-02-21T06:31:57;0.43;;;0.20;;
13321;SDS011;6730;46.248;6.930;2024-02-21T06:34:23;0.27;;;0.20;;
13321;SDS011;6730;46.248;6.930;2024-02-21T06:36:49;0.50;;;0.50;;
13321;SDS011;6730;46.248;6.930;2024-02-21T06:39:15;0.40;;;0.40;;
13321;SDS011;6730;46.248;6.930;2024-02-21T06:41:41;0.40;;;0.30;;
13321;SDS011;6730;46.248;6.930;2024-02-21T06:44:07;0.73;;;0.40;;
13321;SDS011;6730;46.248;6.930;2024-02-21T06:46:33;0.30;;;0.30;;
13321;SDS011;6730;46.248;6.930;2024-02-21T06:48:59;0.30;;;0.20;;
13321;SDS011;6730;46.248;6.930;2024-02-21T06:51:25;0.67;;;0.33;;
13321;SDS011;6730;46.248;6.930;2024-02-21T06:53:51;0.73;;;0.40;;
13321;SDS011;6730;46.248;6.930;2024-02-21T06:56:17;0.30;;;0.30;;
13321;SDS011;6730;46.248;6.930;2024-02-21T06:58:43;0.43;;;0.30;;
13321;SDS011;6730;46.248;6.930;2024-02-21T07:01:08;1.33;;;0.40;;
13321;SDS011;6730;46.248;6.930;2024-02-21T07:03:35;0.43;;;0.43;;
13321;SDS011;6730;46.248;6.930;2024-02-21T07:06:00;0.40;;;0.40;;
13321;SDS011;6730;46.248;6.930;2024-02-21T07:08:26;0.93;;;0.30;;
13321;SDS011;6730;46.248;6.930;2024-02-21T07:10:52;0.27;;;0.27;;
13321;SDS011;6730;46.248;6.930;2024-02-21T07:13:17;0.40;;;0.40;;
13321;SDS011;6730;46.248;6.930;2024-02-21T07:15:43;0.50;;;0.50;;
13321;SDS011;6730;46.248;6.930;2024-02-21T07:18:09;0.60;;;0.43;;
13321;SDS011;6730;46.248;6.930;2024-02-21T07:20:38;1.43;;;0.30;;
13321;SDS011;6730;46.248;6.930;2024-02-21T07:23:06;0.37;;;0.37;;
13321;SDS011;6730;46.248;6.930;2024-02-21T07:25:32;0.20;;;0.20;;
13321;SDS011;6730;46.248;6.930;2024-02-21T07:30:36;0.50;;;0.50;;
13321;SDS011;6730;46.248;6.930;2024-02-21T07:33:02;0.50;;;0.50;;
13321;SDS011;6730;46.248;6.930;2024-02-21T07:35:28;0.33;;;0.33;;
13321;SDS011;6730;46.248;6.930;2024-02-21T07:37:54;0.60;;;0.60;;
13321;SDS011;6730;46.248;6.930;2024-02-21T07:40:20;0.33;;;0.33;;
13321;SDS011;6730;46.248;6.930;2024-02-21T07:42:45;0.77;;;0.60;;
13321;SDS011;6730;46.248;6.930;2024-02-21T07:45:11;0.60;;;0.60;;
13321;SDS011;6730;46.248;6.930;2024-02-21T07:47:37;1.43;;;0.67;;
13321;SDS011;6730;46.248;6.930;2024-02-21T07:50:05;0.67;;;0.67;;
13321;SDS011;6730;46.248;6.930;2024-02-21T07:52:32;1.00;;;0.70;;
13321;SDS011;6730;46.248;6.930;2024-02-21T07:54:57;0.53;;;0.53;;
13321;SDS011;6730;46.248;6.930;2024-02-21T07:57:23;1.77;;;1.10;;
13321;SDS011;6730;46.248;6.930;2024-02-21T07:59:49;1.00;;;0.80;;
13321;SDS011;6730;46.248;6.930;2024-02-21T08:02:14;0.70;;;0.70;;
13321;SDS011;6730;46.248;6.930;2024-02-21T08:04:40;0.80;;;0.80;;
13321;SDS011;6730;46.248;6.930;2024-02-21T08:07:06;1.67;;;1.20;;
13321;SDS011;6730;46.248;6.930;2024-02-21T08:09:32;0.93;;;0.82;;
13321;SDS011;6730;46.248;6.930;2024-02-21T08:11:58;1.27;;;1.02;;
13321;SDS011;6730;46.248;6.930;2024-02-21T08:14:24;1.70;;;1.10;;
13321;SDS011;6730;46.248;6.930;2024-02-21T08:16:52;0.90;;;0.75;;
13321;SDS011;6730;46.248;6.930;2024-02-21T08:19:19;0.73;;;0.68;;
13321;SDS011;6730;46.248;6.930;2024-02-21T08:21:45;1.00;;;0.90;;
13321;SDS011;6730;46.248;6.930;2024-02-21T08:24:13;2.65;;;1.10;;
13321;SDS011;6730;46.248;6.930;2024-02-21T08:26:42;0.90;;;0.88;;
13321;SDS011;6730;46.248;6.930;2024-02-21T08:29:09;1.30;;;1.00;;
13321;SDS011;6730;46.248;6.930;2024-02-21T08:31:36;1.95;;;1.08;;
13321;SDS011;6730;46.248;6.930;2024-02-21T08:34:02;1.33;;;1.23;;
13321;SDS011;6730;46.248;6.930;2024-02-21T08:36:35;2.53;;;1.65;;
13321;SDS011;6730;46.248;6.930;2024-02-21T08:39:02;2.28;;;1.50;;
13321;SDS011;6730;46.248;6.930;2024-02-21T08:41:30;2.38;;;1.27;;
13321;SDS011;6730;46.248;6.930;2024-02-21T08:43:57;1.40;;;1.10;;
13321;SDS011;6730;46.248;6.930;2024-02-21T08:46:23;1.98;;;1.15;;
13321;SDS011;6730;46.248;6.930;2024-02-21T08:48:52;1.25;;;1.05;;
13321;SDS011;6730;46.248;6.930;2024-02-21T08:51:19;1.55;;;0.75;;
13321;SDS011;6730;46.248;6.930;2024-02-21T08:53:45;1.65;;;0.63;;
13321;SDS011;6730;46.248;6.930;2024-02-21T08:56:11;2.45;;;1.00;;
13321;SDS011;6730;46.248;6.930;2024-02-21T08:58:38;3.38;;;1.00;;
13321;SDS011;6730;46.248;6.930;2024-02-21T09:01:05;4.10;;;1.15;;
13321;SDS011;6730;46.248;6.930;2024-02-21T09:03:35;1.13;;;0.90;;
13321;SDS011;6730;46.248;6.930;2024-02-21T09:06:01;1.98;;;0.90;;
13321;SDS011;6730;46.248;6.930;2024-02-21T09:08:27;2.35;;;1.23;;
13321;SDS011;6730;46.248;6.930;2024-02-21T09:10:52;1.58;;;1.20;;
13321;SDS011;6730;46.248;6.930;2024-02-21T09:13:18;1.50;;;1.15;;
13321;SDS011;6730;46.248;6.930;2024-02-21T09:15:48;1.60;;;0.90;;
13321;SDS011;6730;46.248;6.930;2024-02-21T09:18:15;1.10;;;1.00;;
13321;SDS011;6730;46.248;6.930;2024-02-21T09:20:41;1.35;;;1.00;;
13321;SDS011;6730;46.248;6.930;2024-02-21T09:23:07;1.42;;;1.17;;
13321;SDS011;6730;46.248;6.930;2024-02-21T09:25:32;1.48;;;1.10;;
13321;SDS011;6730;46.248;6.930;2024-02-21T09:27:59;2.13;;;1.52;;
13321;SDS011;6730;46.248;6.930;2024-02-21T09:30:26;1.98;;;1.20;;
13321;SDS011;6730;46.248;6.930;2024-02-21T09:32:51;1.92;;;1.13;;
13321;SDS011;6730;46.248;6.930;2024-02-21T09:35:17;1.88;;;1.08;;
13321;SDS011;6730;46.248;6.930;2024-02-21T09:37:43;2.38;;;1.02;;
13321;SDS011;6730;46.248;6.930;2024-02-21T09:40:09;1.92;;;1.30;;
13321;SDS011;6730;46.248;6.930;2024-02-21T09:42:39;4.05;;;0.82;;
13321;SDS011;6730;46.248;6.930;2024-02-21T09:45:19;2.55;;;1.30;;
13321;SDS011;6730;46.248;6.930;2024-02-21T09:50:38;0.93;;;0.90;;
13321;SDS011;6730;46.248;6.930;2024-02-21T09:53:08;1.58;;;1.02;;
13321;SDS011;6730;46.248;6.930;2024-02-21T09:55:36;1.17;;;1.00;;
13321;SDS011;6730;46.248;6.930;2024-02-21T09:58:05;0.85;;;0.85;;
13321;SDS011;6730;46.248;6.930;2024-02-21T10:00:33;1.48;;;1.00;;
13321;SDS011;6730;46.248;6.930;2024-02-21T10:03:00;0.90;;;0.90;;
13321;SDS011;6730;46.248;6.930;2024-02-21T10:05:25;0.90;;;0.90;;
13321;SDS011;6730;46.248;6.930;2024-02-21T10:07:52;1.63;;;1.00;;
13321;SDS011;6730;46.248;6.930;2024-02-21T10:10:19;0.82;;;0.80;;
13321;SDS011;6730;46.248;6.930;2024-02-21T10:12:50;2.20;;;0.88;;
13321;SDS011;6730;46.248;6.930;2024-02-21T10:15:19;2.25;;;0.98;;
13321;SDS011;6730;46.248;6.930;2024-02-21T10:17:49;0.75;;;0.75;;
13321;SDS011;6730;46.248;6.930;2024-02-21T10:20:22;1.52;;;1.33;;
13321;SDS011;6730;46.248;6.930;2024-02-21T10:22:48;1.38;;;1.27;;
13321;SDS011;6730;46.248;6.930;2024-02-21T10:25:14;2.58;;;1.08;;
13321;SDS011;6730;46.248;6.930;2024-02-21T10:27:40;1.23;;;1.02;;
13321;SDS011;6730;46.248;6.930;2024-02-21T10:30:13;1.23;;;1.13;;
13321;SDS011;6730;46.248;6.930;2024-02-21T10:32:51;1.00;;;0.80;;
13321;SDS011;6730;46.248;6.930;2024-02-21T10:35:31;0.90;;;0.90;;
13321;SDS011;6730;46.248;6.930;2024-02-21T10:37:58;1.60;;;1.08;;
13321;SDS011;6730;46.248;6.930;2024-02-21T10:40:24;1.33;;;0.93;;
13321;SDS011;6730;46.248;6.930;2024-02-21T10:42:54;2.13;;;0.98;;
13321;SDS011;6730;46.248;6.930;2024-02-21T10:48:14;2.00;;;1.35;;
13321;SDS011;6730;46.248;6.930;2024-02-21T10:50:45;1.92;;;1.05;;
13321;SDS011;6730;46.248;6.930;2024-02-21T10:58:46;2.25;;;1.80;;
13321;SDS011;6730;46.248;6.930;2024-02-21T11:01:13;2.47;;;1.90;;
13321;SDS011;6730;46.248;6.930;2024-02-21T11:03:41;2.78;;;1.55;;
13321;SDS011;6730;46.248;6.930;2024-02-21T11:06:09;4.22;;;2.03;;
13321;SDS011;6730;46.248;6.930;2024-02-21T11:08:36;4.22;;;1.90;;
13321;SDS011;6730;46.248;6.930;2024-02-21T11:11:02;4.45;;;2.17;;
13321;SDS011;6730;46.248;6.930;2024-02-21T11:13:35;2.33;;;1.85;;
13321;SDS011;6730;46.248;6.930;2024-02-21T11:16:10;2.17;;;1.92;;
13321;SDS011;6730;46.248;6.930;2024-02-21T11:18:45;2.00;;;1.90;;
13321;SDS011;6730;46.248;6.930;2024-02-21T11:21:11;3.67;;;2.20;;
13321;SDS011;6730;46.248;6.930;2024-02-21T11:23:36;2.42;;;1.80;;
13321;SDS011;6730;46.248;6.930;2024-02-21T11:26:05;1.95;;;1.70;;
13321;SDS011;6730;46.248;6.930;2024-02-21T11:28:32;2.65;;;2.45;;
13321;SDS011;6730;46.248;6.930;2024-02-21T11:31:13;2.58;;;2.38;;
13321;SDS011;6730;46.248;6.930;2024-02-21T11:33:42;2.22;;;1.80;;
13321;SDS011;6730;46.248;6.930;2024-02-21T11:36:09;5.10;;;2.13;;
13321;SDS011;6730;46.248;6.930;2024-02-21T11:38:35;2.85;;;2.20;;
13321;SDS011;6730;46.248;6.930;2024-02-21T11:41:01;2.55;;;2.30;;
13321;SDS011;6730;46.248;6.930;2024-02-21T11:43:27;3.28;;;2.08;;
13321;SDS011;6730;46.248;6.930;2024-02-21T11:45:59;2.90;;;2.45;;
13321;SDS011;6730;46.248;6.930;2024-02-21T11:48:26;2.42;;;2.08;;
13321;SDS011;6730;46.248;6.930;2024-02-21T11:50:55;3.22;;;2.05;;
13321;SDS011;6730;46.248;6.930;2024-02-21T11:53:21;4.38;;;2.90;;
13321;SDS011;6730;46.248;6.930;2024-02-21T11:55:47;3.10;;;2.80;;
13321;SDS011;6730;46.248;6.930;2024-02-21T11:58:13;3.22;;;2.10;;
13321;SDS011;6730;46.248;6.930;2024-02-21T12:00:40;5.35;;;2.58;;
13321;SDS011;6730;46.248;6.930;2024-02-21T12:03:06;4.13;;;2.47;;
13321;SDS011;6730;46.248;6.930;2024-02-21T12:05:32;2.58;;;1.70;;
13321;SDS011;6730;46.248;6.930;2024-02-21T12:07:58;2.78;;;2.53;;
13321;SDS011;6730;46.248;6.930;2024-02-21T12:10:27;2.42;;;1.70;;
13321;SDS011;6730;46.248;6.930;2024-02-21T12:12:53;2.25;;;2.05;;
13321;SDS011;6730;46.248;6.930;2024-02-21T12:15:29;2.33;;;2.13;;
13321;SDS011;6730;46.248;6.930;2024-02-21T12:17:56;3.35;;;2.60;;
13321;SDS011;6730;46.248;6.930;2024-02-21T12:20:22;5.20;;;2.28;;
13321;SDS011;6730;46.248;6.930;2024-02-21T12:22:49;3.10;;;2.15;;
13321;SDS011;6730;46.248;6.930;2024-02-21T12:25:15;4.72;;;2.30;;
13321;SDS011;6730;46.248;6.930;2024-02-21T12:27:43;3.22;;;2.22;;
13321;SDS011;6730;46.248;6.930;2024-02-21T12:30:09;4.93;;;2.25;;
13321;SDS011;6730;46.248;6.930;2024-02-21T12:32:35;2.72;;;2.08;;
13321;SDS011;6730;46.248;6.930;2024-02-21T12:35:01;3.15;;;2.78;;
13321;SDS011;6730;46.248;6.930;2024-02-21T12:37:27;2.50;;;2.28;;
13321;SDS011;6730;46.248;6.930;2024-02-21T12:39:53;3.40;;;2.03;;
13321;SDS011;6730;46.248;6.930;2024-02-21T12:42:19;3.97;;;2.70;;
13321;SDS011;6730;46.248;6.930;2024-02-21T12:44:45;6.18;;;3.10;;
13321;SDS011;6730;46.248;6.930;2024-02-21T12:47:11;4.07;;;2.10;;
13321;SDS011;6730;46.248;6.930;2024-02-21T12:49:37;2.72;;;2.30;;
13321;SDS011;6730;46.248;6.930;2024-02-21T12:52:06;4.38;;;2.85;;
13321;SDS011;6730;46.248;6.930;2024-02-21T12:54:35;3.25;;;2.40;;
13321;SDS011;6730;46.248;6.930;2024-02-21T12:57:04;2.83;;;2.50;;
13321;SDS011;6730;46.248;6.930;2024-02-21T12:59:30;2.35;;;2.15;;
13321;SDS011;6730;46.248;6.930;2024-02-21T13:01:55;2.95;;;2.63;;
13321;SDS011;6730;46.248;6.930;2024-02-21T13:04:21;2.63;;;2.15;;
13321;SDS011;6730;46.248;6.930;2024-02-21T13:06:47;3.00;;;2.33;;
13321;SDS011;6730;46.248;6.930;2024-02-21T13:09:14;3.55;;;2.25;;
13321;SDS011;6730;46.248;6.930;2024-02-21T13:11:39;4.90;;;2.08;;
13321;SDS011;6730;46.248;6.930;2024-02-21T13:14:06;2.47;;;2.08;;
13321;SDS011;6730;46.248;6.930;2024-02-21T13:16:32;3.15;;;2.35;;
13321;SDS011;6730;46.248;6.930;2024-02-21T13:19:04;3.63;;;2.03;;
13321;SDS011;6730;46.248;6.930;2024-02-21T13:21:30;3.05;;;2.35;;
13321;SDS011;6730;46.248;6.930;2024-02-21T13:23:56;3.20;;;2.60;;
13321;SDS011;6730;46.248;6.930;2024-02-21T13:26:22;2.78;;;1.80;;
13321;SDS011;6730;46.248;6.930;2024-02-21T13:28:47;3.08;;;2.28;;
13321;SDS011;6730;46.248;6.930;2024-02-21T13:31:14;3.22;;;2.17;;
13321;SDS011;6730;46.248;6.930;2024-02-21T13:33:41;6.05;;;1.95;;
13321;SDS011;6730;46.248;6.930;2024-02-21T13:36:07;2.30;;;2.10;;
13321;SDS011;6730;46.248;6.930;2024-02-21T13:38:33;3.35;;;2.42;;
13321;SDS011;6730;46.248;6.930;2024-02-21T13:40:59;3.55;;;2.63;;
13321;SDS011;6730;46.248;6.930;2024-02-21T13:43:25;2.25;;;2.05;;
13321;SDS011;6730;46.248;6.930;2024-02-21T13:45:58;2.03;;;1.80;;
13321;SDS011;6730;46.248;6.930;2024-02-21T13:48:25;3.05;;;2.50;;
13321;SDS011;6730;46.248;6.930;2024-02-21T13:50:51;4.15;;;2.30;;
13321;SDS011;6730;46.248;6.930;2024-02-21T13:53:17;2.60;;;2.33;;
13321;SDS011;6730;46.248;6.930;2024-02-21T13:55:45;3.40;;;2.42;;
13321;SDS011;6730;46.248;6.930;2024-02-21T13:58:11;3.92;;;2.55;;
13321;SDS011;6730;46.248;6.930;2024-02-21T14:00:37;2.90;;;2.38;;
13321;SDS011;6730;46.248;6.930;2024-02-21T14:03:02;3.53;;;2.10;;
13321;SDS011;6730;46.248;6.930;2024-02-21T14:05:28;3.08;;;2.22;;
13321;SDS011;6730;46.248;6.930;2024-02-21T14:07:57;3.65;;;2.70;;
13321;SDS011;6730;46.248;6.930;2024-02-21T14:10:22;2.55;;;2.20;;
13321;SDS011;6730;46.248;6.930;2024-02-21T14:12:48;2.40;;;2.20;;
13321;SDS011;6730;46.248;6.930;2024-02-21T14:15:14;3.55;;;2.42;;
13321;SDS011;6730;46.248;6.930;2024-02-21T14:20:16;2.63;;;2.42;;
13321;SDS011;6730;46.248;6.930;2024-02-21T14:22:42;3.40;;;2.60;;
13321;SDS011;6730;46.248;6.930;2024-02-21T14:25:08;3.78;;;2.40;;
13321;SDS011;6730;46.248;6.930;2024-02-21T14:27:33;2.75;;;2.55;;
13321;SDS011;6730;46.248;6.930;2024-02-21T14:30:01;3.90;;;2.17;;
13321;SDS011;6730;46.248;6.930;2024-02-21T14:32:27;3.78;;;2.00;;
13321;SDS011;6730;46.248;6.930;2024-02-21T14:34:53;2.80;;;2.50;;
13321;SDS011;6730;46.248;6.930;2024-02-21T14:37:19;5.18;;;2.80;;
13321;SDS011;6730;46.248;6.930;2024-02-21T14:39:44;4.28;;;2.78;;
13321;SDS011;6730;46.248;6.930;2024-02-21T14:42:10;3.10;;;2.72;;
13321;SDS011;6730;46.248;6.930;2024-02-21T14:44:35;3.60;;;2.53;;
13321;SDS011;6730;46.248;6.930;2024-02-21T14:47:02;3.55;;;2.70;;
13321;SDS011;6730;46.248;6.930;2024-02-21T14:49:28;3.90;;;2.40;;
13321;SDS011;6730;46.248;6.930;2024-02-21T14:51:54;3.28;;;2.58;;
13321;SDS011;6730;46.248;6.930;2024-02-21T14:54:20;2.63;;;2.30;;
13321;SDS011;6730;46.248;6.930;2024-02-21T14:56:46;2.80;;;2.50;;
13321;SDS011;6730;46.248;6.930;2024-02-21T14:59:14;4.28;;;2.97;;
13321;SDS011;6730;46.248;6.930;2024-02-21T15:01:41;3.13;;;2.67;;
13321;SDS011;6730;46.248;6.930;2024-02-21T15:04:07;4.18;;;3.10;;
13321;SDS011;6730;46.248;6.930;2024-02-21T15:06:33;4.47;;;2.90;;
13321;SDS011;6730;46.248;6.930;2024-02-21T15:09:01;2.90;;;1.95;;
13321;SDS011;6730;46.248;6.930;2024-02-21T15:11:28;3.80;;;3.45;;
13321;SDS011;6730;46.248;6.930;2024-02-21T15:13:53;3.65;;;3.30;;
13321;SDS011;6730;46.248;6.930;2024-02-21T15:16:19;5.05;;;3.63;;
13321;SDS011;6730;46.248;6.930;2024-02-21T15:18:45;3.55;;;2.80;;
13321;SDS011;6730;46.248;6.930;2024-02-21T15:21:10;3.47;;;3.08;;
13321;SDS011;6730;46.248;6.930;2024-02-21T15:23:39;4.35;;;3.00;;
13321;SDS011;6730;46.248;6.930;2024-02-21T15:26:05;3.50;;;2.80;;
13321;SDS011;6730;46.248;6.930;2024-02-21T15:28:31;3.97;;;3.17;;
13321;SDS011;6730;46.248;6.930;2024-02-21T15:30:57;3.35;;;2.97;;
13321;SDS011;6730;46.248;6.930;2024-02-21T15:33:23;10.50;;;3.13;;
13321;SDS011;6730;46.248;6.930;2024-02-21T15:35:49;5.28;;;3.40;;
13321;SDS011;6730;46.248;6.930;2024-02-21T15:38:15;4.13;;;3.08;;
13321;SDS011;6730;46.248;6.930;2024-02-21T15:40:41;4.15;;;3.00;;